Date,TemperatureHighF,TemperatureAvgF,TemperatureLowF,DewpointHighF,DewpointAvgF,DewpointLowF,HumidityHigh,HumidityAvg,HumidityLow,PressureMaxIn,PressureMinIn,WindSpeedMaxMPH,WindSpeedAvgMPH,GustSpeedMaxMPH,PrecipitationSumIn
2013-1-1,36,20,13,21,16,10,93,84,55,0.00,40.00,0,-999,0,0.00
2013-1-2,15,12,10,13,10,7,92,90,89,0.00,40.00,0,-999,0,0.00
2013-1-3,16,15,11,14,13,9,91,91,90,0.00,40.00,0,-999,0,0.00
2013-1-4,37,27,16,35,25,14,97,95,91,0.00,40.00,0,-999,0,0.00
2013-1-5,27,21,17,25,19,15,94,92,88,0.00,40.00,0,-999,0,0.00
2013-1-6,33,29,28,27,26,25,93,88,78,0.00,40.00,0,-999,0,0.00
2013-1-7,36,32,29,33,30,27,94,91,85,0.00,40.00,0,-999,0,0.00
2013-1-8,38,33,29,35,30,25,92,88,81,0.00,40.00,0,-999,0,0.00
2013-1-9,38,31,21,31,24,18,91,79,49,0.00,40.00,0,-999,0,0.00
2013-1-10,25,22,20,20,18,17,89,84,78,0.00,40.00,0,-999,0,0.00
2013-1-11,26,17,11,15,11,5,91,78,54,0.00,40.00,0,-999,0,0.00
2013-1-12,26,13,9,12,8,5,90,82,47,0.00,40.00,0,-999,0,0.00
2013-1-13,19,10,8,13,6,3,91,83,62,0.00,40.00,0,-999,0,0.00
2013-1-14,25,20,16,23,18,13,92,88,84,0.00,40.00,0,-999,0,0.00
2013-1-15,45,29,20,33,24,19,96,82,54,0.00,40.00,0,-999,0,0.00
2013-1-16,48,34,29,27,23,17,85,66,35,0.00,40.00,0,-999,0,0.00
2013-1-17,55,36,27,26,22,19,75,58,31,0.00,40.00,0,-999,0,0.00
2013-1-18,52,35,28,17,14,7,64,44,23,0.00,40.00,0,-999,0,0.00
2013-1-19,54,40,28,22,19,15,64,45,22,0.00,40.00,0,-999,0,0.00
2013-1-20,57,39,26,21,18,13,66,46,24,0.00,40.00,0,-999,0,0.00
2013-1-21,54,36,25,21,17,13,68,50,27,0.00,40.00,0,-999,0,0.00
2013-1-22,31,23,20,19,15,12,78,70,59,0.00,40.00,0,-999,0,0.00
2013-1-23,31,24,22,28,19,16,90,81,77,0.00,40.00,0,-999,0,0.00
2013-1-24,39,30,19,31,23,16,91,78,54,0.00,40.00,0,-999,0,0.00
2013-1-25,38,34,27,34,31,23,92,89,84,0.00,40.00,0,-999,0,0.00
2013-1-26,30,27,24,25,23,21,90,86,79,0.00,40.00,0,-999,0,0.00
2013-1-27,27,27,26,25,23,22,91,88,81,0.00,40.00,0,-999,0,0.00
2013-1-28,28,26,26,26,24,23,94,90,85,0.00,40.00,0,-999,0,0.00
2013-1-29,32,29,27,29,27,26,94,92,89,0.00,40.00,0,-999,0,0.00
2013-1-31,36,35,34,32,32,31,90,88,84,0.00,40.00,0,-999,0,0.00
2013-2-1,44,35,28,31,29,26,93,79,58,0.00,40.00,0,-999,0,0.00
2013-2-2,52,36,26,29,25,23,90,69,38,0.00,40.00,0,-999,0,0.00
2013-2-3,34,30,27,29,26,24,92,86,82,0.00,40.00,0,-999,0,0.00
2013-2-4,40,34,29,32,30,26,94,87,72,0.00,40.00,0,-999,0,0.00
2013-2-5,34,32,30,30,28,25,89,84,79,0.00,40.00,0,-999,0,0.00
2013-2-6,35,31,29,29,27,25,91,83,68,0.00,40.00,0,-999,0,0.00
2013-2-7,35,27,19,27,22,16,89,79,52,0.00,40.00,0,-999,0,0.00
2013-2-8,40,25,16,23,18,12,94,76,50,0.00,40.00,0,-999,0,0.00
2013-2-9,33,26,22,27,24,20,95,90,77,0.00,40.00,0,-999,0,0.00
2013-2-10,41,30,22,31,26,20,94,85,65,0.00,40.00,0,-999,0,0.00
2013-2-11,31,28,26,29,26,25,96,94,90,0.00,40.00,0,-999,0,0.00
2013-2-12,35,32,29,32,29,25,93,88,83,0.00,40.00,0,-999,0,0.00
2013-2-14,32,30,27,31,28,26,96,96,95,0.00,40.00,0,-999,0,0.00
2013-2-15,31,31,31,29,28,28,93,90,88,0.00,40.00,0,-999,0,0.00
2013-2-16,35,29,26,32,27,23,93,89,87,0.00,40.00,0,-999,0,0.00
2013-2-17,29,26,20,23,21,16,89,83,73,0.00,40.00,0,-999,0,0.00
2013-2-18,30,24,19,24,20,16,88,83,77,0.00,40.00,0,-999,0,0.00
2013-2-19,33,25,17,23,20,14,87,80,66,0.00,40.00,0,-999,0,0.00
2013-2-20,29,26,23,23,22,21,91,83,74,0.00,40.00,0,-999,0,0.00
2013-2-21,29,28,26,25,24,22,86,85,84,0.00,40.00,0,-999,0,0.00
2013-2-22,31,28,23,28,26,19,92,90,86,0.00,40.00,0,-999,0,0.00
2013-2-23,28,25,23,23,21,20,90,85,80,0.00,40.00,0,-999,0,0.00
2013-2-24,31,28,24,27,24,21,91,88,81,0.00,40.00,0,-999,0,0.00
2013-2-25,28,26,23,26,23,19,91,88,84,0.00,40.00,0,-999,0,0.00
2013-2-26,38,27,23,26,21,18,87,80,62,0.00,40.00,0,-999,0,0.00
2013-2-27,42,33,29,29,26,25,88,77,55,0.00,40.00,0,-999,0,0.00
2013-2-28,40,36,31,37,33,29,93,89,84,0.00,40.00,0,-999,0,0.00
2013-3-1,44,38,33,37,35,31,94,89,77,0.00,40.00,0,-999,0,0.00
2013-3-2,42,33,28,35,30,25,95,89,76,0.00,40.00,0,-999,0,0.00
2013-3-3,29,25,20,21,20,17,90,81,70,0.00,40.00,0,-999,0,0.00
2013-3-4,37,31,20,18,16,13,75,54,41,0.00,40.00,0,-999,0,0.00
2013-3-5,28,26,22,25,22,15,91,84,70,0.00,40.00,0,-999,0,0.00
2013-3-6,32,29,27,27,26,23,92,88,82,0.00,40.00,0,-999,0,0.00
2013-3-7,41,31,23,28,24,19,91,76,57,0.00,40.00,0,-999,0,0.00
2013-3-8,49,30,19,22,20,16,88,71,34,0.00,40.00,0,-999,0,0.00
2013-3-9,32,26,20,25,21,17,91,84,76,0.00,40.00,0,-999,0,0.00
2013-3-10,35,30,27,32,26,23,91,86,83,0.00,40.00,0,-999,0,0.00
2013-3-11,38,35,32,33,32,30,93,88,79,0.00,40.00,0,-999,0,0.00
2013-3-12,39,38,37,37,36,34,94,90,83,0.00,40.00,0,-999,0,0.00
2013-3-13,44,40,36,40,37,34,93,90,85,0.00,40.00,0,-999,0,0.00
2013-3-14,37,37,37,35,35,35,91,91,91,0.00,40.00,0,-999,0,0.00
2013-3-15,38,37,36,35,34,33,90,88,87,0.00,40.00,0,-999,0,0.00
2013-3-16,36,34,33,33,31,30,89,88,86,0.00,40.00,0,-999,0,0.00
2013-3-17,28,26,24,22,21,20,85,81,77,0.00,40.00,0,-999,0,0.00
2013-3-18,33,29,27,23,22,22,82,77,67,0.00,40.00,0,-999,0,0.00
2013-3-19,25,20,18,17,16,14,86,81,70,0.00,40.00,0,-999,0,0.00
2013-3-20,29,29,28,27,26,26,93,91,88,0.00,40.00,0,-999,0,0.00
2013-3-21,27,27,27,21,21,21,77,77,77,0.00,40.00,0,-999,0,0.00
2013-3-22,29,24,16,20,16,11,85,75,64,0.00,40.00,0,-999,0,0.00
2013-3-23,39,23,14,21,14,11,87,71,38,0.00,40.00,0,-999,0,0.00
2013-3-24,41,26,17,20,16,13,87,69,38,0.00,40.00,0,-999,0,0.00
2013-3-25,44,28,20,22,18,16,84,66,41,0.00,40.00,0,-999,0,0.00
2013-3-26,45,41,35,33,31,27,90,69,50,0.00,40.00,0,-999,0,0.00
2013-3-27,43,37,33,35,32,30,89,83,66,0.00,40.00,0,-999,0,0.00
2013-3-28,45,37,31,33,31,28,91,78,53,0.00,40.00,0,-999,0,0.00
2013-3-29,51,41,31,35,31,28,88,68,41,0.00,40.00,0,-999,0,0.00
2013-3-30,63,43,29,37,32,26,87,68,35,0.00,40.00,0,-999,0,0.00
2013-3-31,62,49,39,34,30,27,69,51,26,0.00,40.00,0,-999,0,0.00
2013-4-1,50,41,35,39,36,31,92,80,65,0.00,40.00,0,-999,0,0.00
2013-4-2,44,41,39,38,36,34,87,83,78,0.00,40.00,0,-999,0,0.00
2013-4-3,54,45,33,32,29,25,93,58,34,0.00,40.00,0,-999,0,0.00
2013-4-4,43,40,38,39,34,30,88,80,68,0.00,40.00,0,-999,0,0.00
2013-4-5,40,38,36,36,35,34,92,89,85,0.00,40.00,0,-999,0,0.00
2013-4-6,36,34,33,33,31,29,92,88,82,0.00,40.00,0,-999,0,0.00
2013-4-7,33,31,29,30,29,27,92,90,84,0.00,40.00,0,-999,0,0.00
2013-4-8,38,33,28,31,29,25,93,84,73,0.00,40.00,0,-999,0,0.00
2013-4-9,44,36,29,34,30,27,95,81,52,0.00,40.00,0,-999,0,0.00
2013-4-10,41,36,31,38,33,26,94,89,82,0.00,40.00,0,-999,0,0.00
2013-4-11,38,33,29,29,27,25,93,80,63,0.00,40.00,0,-999,0,0.00
2013-4-12,41,31,25,30,25,20,94,81,43,0.00,40.00,0,-999,0,0.00
2013-4-13,28,25,22,26,22,19,91,88,85,0.00,40.00,0,-999,0,0.00
2013-4-15,46,34,27,28,27,24,91,75,45,0.00,40.00,0,-999,0,0.00
2013-4-16,44,30,21,27,23,17,95,76,45,0.00,40.00,0,-999,0,0.00
2013-4-17,41,31,19,29,23,16,89,74,50,0.00,40.00,0,-999,0,0.00
2013-4-18,40,35,31,35,32,28,93,87,77,0.00,40.00,0,-999,0,0.00
2013-4-19,40,37,35,36,34,32,93,89,85,0.00,40.00,0,-999,0,0.00
2013-4-20,41,36,33,34,32,29,90,85,74,0.00,40.00,0,-999,0,0.00
2013-4-21,37,33,29,33,29,27,92,86,76,0.00,40.00,0,-999,0,0.00
2013-4-22,56,36,24,26,22,16,88,61,24,0.00,40.00,0,-999,0,0.00
2013-4-23,52,38,27,27,24,16,87,61,30,0.00,40.00,0,-999,0,0.00
2013-4-24,59,43,29,29,23,17,76,51,21,0.00,40.00,0,-999,0,0.00
2013-4-25,62,46,33,35,31,26,79,58,34,0.00,40.00,0,-999,0,0.00
2013-4-26,63,48,35,33,30,22,89,55,24,0.00,40.00,0,-999,0,0.00
2013-4-27,49,43,36,35,27,15,93,58,30,0.00,40.00,0,-999,0,0.00
2013-4-28,39,37,34,36,33,30,91,85,77,0.00,40.00,0,-999,0,0.00
2013-4-29,35,32,26,33,28,22,93,85,71,0.00,40.00,0,-999,0,0.00
2013-4-30,38,30,24,24,21,18,86,70,53,0.00,40.00,0,-999,0,0.00
2013-5-1,60,38,21,32,21,14,89,56,21,0.00,40.00,0,-999,0,0.00
2013-5-2,65,45,32,34,27,20,78,55,18,0.00,40.00,0,-999,0,0.00
2013-5-3,67,48,36,36,32,29,83,57,27,0.00,40.00,0,-999,0,0.00
2013-5-4,66,50,37,32,29,27,77,50,24,0.00,40.00,0,-999,0,0.00
2013-5-5,70,54,42,29,27,26,56,38,20,0.00,40.00,0,-999,0,0.00
2013-5-6,72,52,39,35,31,27,67,48,19,0.00,40.00,0,-999,0,0.00
2013-5-7,69,54,40,45,38,32,83,58,38,0.00,40.00,0,-999,0,0.00
2013-5-8,69,52,42,46,42,35,96,72,44,0.00,40.00,0,-999,0,0.00
2013-5-9,74,56,43,45,35,27,81,50,23,0.00,40.00,0,-999,0,0.00
2013-5-10,75,57,43,42,34,28,74,48,21,0.00,40.00,0,-999,0,0.00
2013-5-11,74,56,46,47,41,37,82,60,32,0.00,40.00,0,-999,0,0.00
2013-5-12,57,51,46,49,44,37,89,79,66,0.00,40.00,0,-999,0,0.00
2013-5-13,47,43,33,43,38,29,90,83,66,0.00,40.00,0,-999,0,0.00
2013-5-14,54,39,30,33,30,27,92,70,39,0.00,40.00,0,-999,0,0.00
2013-5-15,46,40,34,39,33,27,88,78,48,0.00,40.00,0,-999,0,0.00
2013-5-16,58,46,36,42,31,-100,91,75,49,0.00,40.00,0,-999,0,0.00
2013-5-17,43,41,39,40,37,36,93,87,79,0.00,40.00,0,-999,0,0.00
2013-5-18,43,39,37,37,35,33,93,86,76,0.00,40.00,0,-999,0,0.00
2013-5-19,47,42,35,39,37,33,92,84,70,0.00,40.00,0,-999,0,0.00
2013-5-20,69,49,33,41,35,27,96,65,26,0.00,40.00,0,-999,0,0.00
2013-5-21,43,38,31,41,33,29,93,85,77,0.00,40.00,0,-999,0,0.00
2013-5-22,39,33,28,32,29,26,95,86,70,0.00,40.00,0,-999,0,0.00
2013-5-23,40,35,32,34,32,30,94,90,80,0.00,40.00,0,-999,0,0.00
2013-5-24,44,38,33,36,34,31,94,85,70,0.00,40.00,0,-999,0,0.00
2013-5-25,51,41,35,37,34,31,92,77,58,0.00,40.00,0,-999,0,0.00
2013-5-26,52,44,38,43,37,34,88,78,57,0.00,40.00,0,-999,0,0.00
2013-5-27,45,41,36,42,38,32,90,87,83,0.00,40.00,0,-999,0,0.00
2013-5-28,45,42,39,40,38,36,91,85,74,0.00,40.00,0,-999,0,0.00
2013-5-29,43,39,35,40,36,32,92,89,84,0.00,40.00,0,-999,0,0.00
2013-5-30,42,38,34,37,34,31,93,87,76,0.00,40.00,0,-999,0,0.00
2013-5-31,58,44,36,40,36,33,94,75,49,0.00,40.00,0,-999,0,0.00
2013-6-1,61,48,39,40,37,34,89,68,42,0.00,40.00,0,-999,0,0.00
2013-6-2,58,47,41,40,38,36,90,73,51,0.00,40.00,0,-999,0,0.00
2013-6-3,65,51,36,41,37,34,93,63,36,0.00,40.00,0,-999,0,0.00
2013-6-4,71,53,39,46,38,32,81,60,30,0.00,40.00,0,-999,0,0.00
2013-6-5,70,57,46,48,43,37,83,63,33,0.00,40.00,0,-999,0,0.00
2013-6-6,71,58,46,49,44,41,87,62,39,0.00,40.00,0,-999,0,0.00
2013-6-7,60,51,43,47,41,31,85,69,40,0.00,40.00,0,-999,0,0.00
2013-6-8,65,54,42,43,38,31,90,60,33,0.00,40.00,0,-999,0,0.00
2013-6-9,59,50,44,42,38,34,80,66,41,0.00,40.00,0,-999,0,0.00
2013-6-10,60,49,36,41,38,33,87,66,43,0.00,40.00,0,-999,0,0.00
2013-6-11,43,41,38,37,35,31,90,80,71,0.00,40.00,0,-999,0,0.00
2013-6-12,49,41,36,38,35,33,90,80,60,0.00,40.00,0,-999,0,0.00
2013-6-13,49,42,38,40,37,35,91,83,65,0.00,40.00,0,-999,0,0.00
2013-6-14,54,43,39,42,38,37,92,85,64,0.00,40.00,0,-999,0,0.00
2013-6-15,69,55,40,45,40,36,86,61,34,0.00,40.00,0,-999,0,0.00
2013-6-16,71,56,45,51,44,37,85,68,29,0.00,40.00,0,-999,0,0.00
2013-6-17,64,55,46,45,43,40,91,66,46,0.00,40.00,0,-999,0,0.00
2013-6-18,60,50,45,43,37,31,82,64,38,0.00,40.00,0,-999,0,0.00
2013-6-19,48,43,41,39,37,35,87,79,66,0.00,40.00,0,-999,0,0.00
2013-6-20,41,40,39,37,36,35,89,86,83,0.00,40.00,0,-999,0,0.00
2013-6-22,68,60,45,47,44,41,87,56,42,0.00,40.00,0,-999,0,0.00
2013-6-23,56,53,50,50,48,45,91,83,76,0.00,40.00,0,-999,0,0.00
2013-6-24,54,49,44,48,43,40,91,80,60,0.00,40.00,0,-999,0,0.00
2013-6-25,55,48,43,44,42,39,89,81,59,0.00,40.00,0,-999,0,0.00
2013-6-26,59,51,45,49,45,42,91,79,59,0.00,40.00,0,-999,0,0.00
2013-6-27,61,54,48,52,48,44,88,81,69,0.00,40.00,0,-999,0,0.00
2013-6-28,78,65,48,57,52,44,91,66,39,0.00,40.00,0,-999,0,0.00
2013-6-29,77,66,58,57,55,53,94,70,48,0.00,40.00,0,-999,0,0.00
2013-6-30,83,70,53,57,54,49,88,60,35,0.00,40.00,0,-999,0,0.00
2013-7-1,90,71,58,60,52,45,80,53,26,0.00,40.00,0,-999,0,0.00
2013-7-2,84,70,60,61,54,44,95,64,25,0.00,40.00,0,-999,0,0.00
2013-7-3,73,63,53,52,44,39,91,54,33,0.00,40.00,0,-999,0,0.00
2013-7-4,61,53,44,47,44,40,86,71,56,0.00,40.00,0,-999,0,0.00
2013-7-5,59,52,46,45,43,40,89,74,58,0.00,40.00,0,-999,0,0.00
2013-7-6,74,56,41,51,44,39,92,69,34,0.00,40.00,0,-999,0,0.00
2013-7-7,72,60,49,52,48,46,94,69,44,0.00,40.00,0,-999,0,0.00
2013-7-8,72,57,48,51,48,45,93,73,40,0.00,40.00,0,-999,0,0.00
2013-7-9,81,64,49,53,46,40,82,56,28,0.00,40.00,0,-999,0,0.00
2013-7-10,70,60,51,50,46,39,94,63,34,0.00,40.00,0,-999,0,0.00
2013-7-11,63,50,38,41,37,32,93,64,37,0.00,40.00,0,-999,0,0.00
2013-7-12,56,49,43,42,39,37,89,71,51,0.00,40.00,0,-999,0,0.00
2013-7-13,70,56,39,45,36,29,90,53,28,0.00,40.00,0,-999,0,0.00
2013-7-14,73,65,45,42,36,32,80,37,23,0.00,40.00,0,-999,0,0.00
2013-7-15,79,59,45,43,40,33,76,53,27,0.00,40.00,0,-999,0,0.00
2013-7-16,67,57,52,44,35,30,60,44,29,0.00,40.00,0,-999,0,0.00
2013-7-17,73,60,54,52,49,43,91,71,35,0.00,40.00,0,-999,0,0.00
2013-7-18,79,66,44,51,39,29,80,42,16,0.00,40.00,0,-999,0,0.00
2013-7-19,81,63,50,54,42,29,81,53,17,0.00,40.00,0,-999,0,0.00
2013-7-20,78,65,50,51,41,26,81,45,26,0.00,40.00,0,-999,0,0.00
2013-7-21,76,63,49,52,49,44,93,66,33,0.00,40.00,0,-999,0,0.00
2013-7-22,76,62,52,52,50,47,92,69,39,0.00,40.00,0,-999,0,0.00
2013-7-23,83,67,51,51,39,31,72,40,16,0.00,40.00,0,-999,0,0.00
2013-7-24,80,66,50,50,41,33,79,44,23,0.00,40.00,0,-999,0,0.00
2013-7-25,81,65,49,47,38,32,76,42,18,0.00,40.00,0,-999,0,0.00
2013-7-26,78,64,50,45,37,30,67,39,21,0.00,40.00,0,-999,0,0.00
2013-7-27,70,58,45,45,42,37,74,55,38,0.00,40.00,0,-999,0,0.00
2013-7-28,66,52,44,46,44,42,93,78,48,0.00,40.00,0,-999,0,0.00
2013-7-29,72,57,44,48,44,39,92,66,32,0.00,40.00,0,-999,0,0.00
2013-7-30,74,62,49,53,49,46,93,67,42,0.00,40.00,0,-999,0,0.00
2013-7-31,73,63,53,51,46,37,90,59,28,0.00,40.00,0,-999,0,0.00
2013-8-1,58,52,48,51,48,45,93,87,75,0.00,40.00,0,-999,0,0.00
2013-8-2,55,50,47,47,45,44,91,84,72,0.00,40.00,0,-999,0,0.00
2013-8-3,67,58,47,53,49,45,94,74,49,0.00,40.00,0,-999,0,0.00
2013-8-4,77,63,48,53,48,45,89,61,36,0.00,40.00,0,-999,0,0.00
2013-8-5,57,54,52,52,49,47,85,83,82,0.00,40.00,0,-999,0,0.00
2013-8-29,59,55,53,52,51,49,89,85,75,0.00,40.00,0,-999,0,0.00
2013-8-30,66,58,52,49,48,45,89,70,46,0.00,40.00,0,-999,0,0.00
2013-8-31,59,50,46,47,44,42,87,81,65,0.00,40.00,0,-999,0,0.00
2013-9-1,81,70,57,52,49,47,73,49,30,0.00,40.00,0,-999,0,0.00
2013-9-2,70,60,51,51,50,48,95,71,50,0.00,40.00,0,-999,0,0.00
2013-9-3,68,58,54,53,51,50,91,80,56,0.00,40.00,0,-999,0,0.00
2013-9-4,68,59,48,52,48,41,90,70,49,0.00,40.00,0,-999,0,0.00
2013-9-5,61,56,51,54,52,47,95,87,76,0.00,40.00,0,-999,0,0.00
2013-9-6,53,49,47,49,47,45,93,90,85,0.00,40.00,0,-999,0,0.00
2013-9-7,58,51,45,51,47,43,94,87,74,0.00,40.00,0,-999,0,0.00
2013-9-8,73,60,45,53,48,43,91,67,42,0.00,40.00,0,-999,0,0.00
2013-9-9,75,62,48,54,48,41,86,61,38,0.00,40.00,0,-999,0,0.00
2013-9-10,78,64,50,50,47,45,84,58,31,0.00,40.00,0,-999,0,0.00
2013-9-11,86,66,54,47,46,44,72,51,23,0.00,40.00,0,-999,0,0.00
2013-9-12,75,61,54,55,48,44,74,64,45,0.00,40.00,0,-999,0,0.00
2013-9-13,78,63,54,57,51,48,81,67,40,0.00,40.00,0,-999,0,0.00
2013-9-17,47,45,43,44,41,38,93,87,76,0.00,40.00,0,-999,0,0.00
2013-9-18,41,41,41,37,37,37,87,87,87,0.00,40.00,0,-999,0,0.00
2013-9-19,65,47,35,39,36,31,89,69,38,0.00,40.00,0,-999,0,0.00
2013-9-20,68,53,41,41,37,35,81,59,32,0.00,40.00,0,-999,0,0.00
2013-9-21,52,47,44,43,42,40,89,83,65,0.00,40.00,0,-999,0,0.00
2013-9-22,44,42,40,41,39,36,90,87,83,0.00,40.00,0,-999,0,0.00
2013-9-23,43,41,40,40,38,36,91,87,85,0.00,40.00,0,-999,0,0.00
2013-9-24,48,39,33,36,34,31,92,83,61,0.00,40.00,0,-999,0,0.00
2013-9-25,44,38,36,38,35,33,92,88,80,0.00,40.00,0,-999,0,0.00
2013-9-26,44,36,32,37,34,31,95,90,77,0.00,40.00,0,-999,0,0.00
2013-9-27,43,43,42,41,40,39,91,90,88,0.00,40.00,0,-999,0,0.00
2013-11-26,34,28,25,23,20,19,76,73,65,0.00,40.00,0,-999,0,0.00
2013-11-27,44,38,33,26,26,25,76,61,46,0.00,40.00,0,-999,0,0.00
2013-11-28,39,33,28,27,25,23,80,73,60,0.00,40.00,0,-999,0,0.00
2013-11-29,34,33,32,32,31,28,96,92,85,0.00,40.00,0,-999,0,0.00
2013-11-30,38,38,37,36,35,35,94,93,90,0.00,40.00,0,-999,0,0.00
2013-12-1,40,39,37,37,36,35,91,90,89,0.00,40.00,0,-999,0,0.00
2013-12-2,28,25,21,25,22,17,92,89,85,0.00,40.00,0,-999,0,0.00
2013-12-3,22,17,10,19,12,6,92,82,72,0.00,40.00,0,-999,0,0.00
2013-12-4,23,23,23,9,9,9,54,54,54,0.00,40.00,0,-999,0,0.00
2013-12-14,37,34,32,33,32,31,95,90,85,0.00,40.00,0,-999,0,0.00
2013-12-15,38,38,37,36,34,32,94,88,81,0.00,40.00,0,-999,0,0.00
2013-12-16,41,35,28,31,30,27,94,80,66,0.00,40.00,0,-999,0,0.00
2013-12-17,33,33,33,26,26,26,75,75,75,0.00,40.00,0,-999,0,0.00
2013-12-18,35,33,32,31,28,26,86,82,79,0.00,40.00,0,-999,0,0.00
2013-12-19,25,20,15,11,11,11,82,68,55,0.00,40.00,0,-999,0,0.00
2013-12-20,32,29,20,31,28,18,96,95,92,0.00,40.00,0,-999,0,0.00
2013-12-31,32,30,28,30,29,26,95,94,93,0.00,40.00,0,-999,0,0.00
2014-1-1,36,31,26,30,26,23,90,83,61,0.00,40.00,0,-999,0,0.00
2014-1-2,46,42,37,33,32,31,86,71,56,0.00,40.00,0,-999,0,0.00